sensor_id;sensor_type;location;lat;lon;timestamp;temperature;humidity
55777;DHT22;54079;44.540;18.784;2024-01-16T00:01:23;4.80;99.90
55777;DHT22;54079;44.540;18.784;2024-01-16T00:03:49;4.90;99.90
55777;DHT22;54079;44.540;18.784;2024-01-16T00:06:15;4.80;99.90
55777;DHT22;54079;44.540;18.784;2024-01-16T00:08:41;4.90;99.90
55777;DHT22;54079;44.540;18.784;2024-01-16T00:11:06;4.80;99.90
55777;DHT22;54079;44.540;18.784;2024-01-16T00:13:33;4.80;99.90
55777;DHT22;54079;44.540;18.784;2024-01-16T00:16:01;4.70;99.90
55777;DHT22;54079;44.540;18.784;2024-01-16T00:18:27;4.90;99.90
55777;DHT22;54079;44.540;18.784;2024-01-16T00:20:53;5.00;99.90
55777;DHT22;54079;44.540;18.784;2024-01-16T00:23:19;5.20;99.90
55777;DHT22;54079;44.540;18.784;2024-01-16T00:25:45;5.30;99.90
55777;DHT22;54079;44.540;18.784;2024-01-16T00:28:11;5.10;99.90
55777;DHT22;54079;44.540;18.784;2024-01-16T00:30:37;4.60;99.90
55777;DHT22;54079;44.540;18.784;2024-01-16T00:33:03;4.90;99.90
55777;DHT22;54079;44.540;18.784;2024-01-16T00:35:29;5.10;99.90
55777;DHT22;54079;44.540;18.784;2024-01-16T00:37:54;5.00;99.90
55777;DHT22;54079;44.540;18.784;2024-01-16T00:40:20;4.80;99.90
55777;DHT22;54079;44.540;18.784;2024-01-16T00:42:46;4.80;99.90
55777;DHT22;54079;44.540;18.784;2024-01-16T00:45:12;4.90;99.90
55777;DHT22;54079;44.540;18.784;2024-01-16T00:47:38;4.90;99.90
55777;DHT22;54079;44.540;18.784;2024-01-16T00:50:04;5.00;99.90
55777;DHT22;54079;44.540;18.784;2024-01-16T00:52:31;4.80;99.90
55777;DHT22;54079;44.540;18.784;2024-01-16T00:54:56;4.10;99.90
55777;DHT22;54079;44.540;18.784;2024-01-16T00:57:22;4.20;99.90
55777;DHT22;54079;44.540;18.784;2024-01-16T00:59:48;4.60;99.90
55777;DHT22;54079;44.540;18.784;2024-01-16T01:02:15;4.90;99.90
55777;DHT22;54079;44.540;18.784;2024-01-16T01:04:41;5.10;99.90
55777;DHT22;54079;44.540;18.784;2024-01-16T01:07:08;5.20;99.90
55777;DHT22;54079;44.540;18.784;2024-01-16T01:09:34;4.90;99.90
55777;DHT22;54079;44.540;18.784;2024-01-16T01:12:00;4.10;99.90
55777;DHT22;54079;44.540;18.784;2024-01-16T01:14:26;4.00;99.90
55777;DHT22;54079;44.540;18.784;2024-01-16T01:16:54;4.30;99.90
55777;DHT22;54079;44.540;18.784;2024-01-16T01:19:20;4.60;99.90
55777;DHT22;54079;44.540;18.784;2024-01-16T01:21:46;4.70;99.90
55777;DHT22;54079;44.540;18.784;2024-01-16T01:24:12;4.90;99.90
55777;DHT22;54079;44.540;18.784;2024-01-16T01:26:38;5.00;99.90
55777;DHT22;54079;44.540;18.784;2024-01-16T01:29:04;5.10;99.90
55777;DHT22;54079;44.540;18.784;2024-01-16T01:31:30;5.30;99.90
55777;DHT22;54079;44.540;18.784;2024-01-16T01:33:56;5.10;99.90
55777;DHT22;54079;44.540;18.784;2024-01-16T01:36:22;5.00;99.90
55777;DHT22;54079;44.540;18.784;2024-01-16T01:38:48;5.00;99.90
55777;DHT22;54079;44.540;18.784;2024-01-16T01:41:13;5.10;99.90
55777;DHT22;54079;44.540;18.784;2024-01-16T01:43:39;5.10;99.90
55777;DHT22;54079;44.540;18.784;2024-01-16T01:46:19;4.30;99.90
55777;DHT22;54079;44.540;18.784;2024-01-16T01:48:46;4.10;99.90
55777;DHT22;54079;44.540;18.784;2024-01-16T01:51:14;4.50;99.90
55777;DHT22;54079;44.540;18.784;2024-01-16T01:53:42;4.70;99.90
55777;DHT22;54079;44.540;18.784;2024-01-16T01:56:13;4.90;99.90
55777;DHT22;54079;44.540;18.784;2024-01-16T01:58:43;4.60;99.90
55777;DHT22;54079;44.540;18.784;2024-01-16T02:01:09;3.70;99.90
55777;DHT22;54079;44.540;18.784;2024-01-16T02:03:42;3.30;99.90
55777;DHT22;54079;44.540;18.784;2024-01-16T02:06:08;3.50;99.90
55777;DHT22;54079;44.540;18.784;2024-01-16T02:08:35;3.60;99.90
55777;DHT22;54079;44.540;18.784;2024-01-16T02:11:01;4.00;99.90
55777;DHT22;54079;44.540;18.784;2024-01-16T02:13:28;4.30;99.90
55777;DHT22;54079;44.540;18.784;2024-01-16T02:15:54;4.60;99.90
55777;DHT22;54079;44.540;18.784;2024-01-16T02:18:19;4.80;99.90
55777;DHT22;54079;44.540;18.784;2024-01-16T02:20:46;5.00;99.90
55777;DHT22;54079;44.540;18.784;2024-01-16T02:23:14;4.50;99.90
55777;DHT22;54079;44.540;18.784;2024-01-16T02:25:41;4.30;99.90
55777;DHT22;54079;44.540;18.784;2024-01-16T02:28:07;4.50;99.90
55777;DHT22;54079;44.540;18.784;2024-01-16T02:30:33;4.10;99.90
55777;DHT22;54079;44.540;18.784;2024-01-16T02:32:59;4.40;99.90
55777;DHT22;54079;44.540;18.784;2024-01-16T02:35:26;4.80;99.90
55777;DHT22;54079;44.540;18.784;2024-01-16T02:37:51;4.80;99.90
55777;DHT22;54079;44.540;18.784;2024-01-16T02:40:17;4.80;99.90
55777;DHT22;54079;44.540;18.784;2024-01-16T02:42:43;4.90;99.90
55777;DHT22;54079;44.540;18.784;2024-01-16T02:45:09;5.00;99.90
55777;DHT22;54079;44.540;18.784;2024-01-16T02:47:35;5.10;99.90
55777;DHT22;54079;44.540;18.784;2024-01-16T02:50:02;5.20;99.90
55777;DHT22;54079;44.540;18.784;2024-01-16T02:52:28;5.30;99.90
55777;DHT22;54079;44.540;18.784;2024-01-16T02:54:54;5.30;99.90
55777;DHT22;54079;44.540;18.784;2024-01-16T02:57:20;5.40;99.90
55777;DHT22;54079;44.540;18.784;2024-01-16T02:59:46;5.40;99.90
55777;DHT22;54079;44.540;18.784;2024-01-16T03:02:12;5.40;99.90
55777;DHT22;54079;44.540;18.784;2024-01-16T03:04:39;5.40;99.90
55777;DHT22;54079;44.540;18.784;2024-01-16T03:07:05;5.40;99.90
55777;DHT22;54079;44.540;18.784;2024-01-16T03:09:31;5.00;99.90
55777;DHT22;54079;44.540;18.784;2024-01-16T03:11:59;4.40;99.90
55777;DHT22;54079;44.540;18.784;2024-01-16T03:14:25;4.10;99.90
55777;DHT22;54079;44.540;18.784;2024-01-16T03:16:51;4.30;99.90
55777;DHT22;54079;44.540;18.784;2024-01-16T03:19:17;4.50;99.90
55777;DHT22;54079;44.540;18.784;2024-01-16T03:21:43;4.80;99.90
55777;DHT22;54079;44.540;18.784;2024-01-16T03:24:10;5.00;99.90
55777;DHT22;54079;44.540;18.784;2024-01-16T03:26:38;5.10;99.90
55777;DHT22;54079;44.540;18.784;2024-01-16T03:29:04;5.10;99.90
55777;DHT22;54079;44.540;18.784;2024-01-16T03:31:31;4.90;99.90
55777;DHT22;54079;44.540;18.784;2024-01-16T03:33:58;4.80;99.90
55777;DHT22;54079;44.540;18.784;2024-01-16T03:36:24;4.80;99.90
55777;DHT22;54079;44.540;18.784;2024-01-16T03:38:50;4.80;99.90
55777;DHT22;54079;44.540;18.784;2024-01-16T03:41:16;4.90;99.90
55777;DHT22;54079;44.540;18.784;2024-01-16T03:43:42;4.90;99.90
55777;DHT22;54079;44.540;18.784;2024-01-16T03:46:10;5.00;99.90
55777;DHT22;54079;44.540;18.784;2024-01-16T03:48:37;4.90;99.90
55777;DHT22;54079;44.540;18.784;2024-01-16T03:51:03;5.00;99.90
55777;DHT22;54079;44.540;18.784;2024-01-16T03:53:29;4.60;99.90
55777;DHT22;54079;44.540;18.784;2024-01-16T03:55:56;4.70;99.90
55777;DHT22;54079;44.540;18.784;2024-01-16T03:58:21;4.60;99.90
55777;DHT22;54079;44.540;18.784;2024-01-16T04:00:48;4.70;99.90
55777;DHT22;54079;44.540;18.784;2024-01-16T04:03:17;4.60;99.90
55777;DHT22;54079;44.540;18.784;2024-01-16T04:05:43;4.40;99.90
55777;DHT22;54079;44.540;18.784;2024-01-16T04:08:09;4.50;99.90
55777;DHT22;54079;44.540;18.784;2024-01-16T04:10:35;4.80;99.90
55777;DHT22;54079;44.540;18.784;2024-01-16T04:13:01;4.70;99.90
55777;DHT22;54079;44.540;18.784;2024-01-16T04:15:28;4.80;99.90
55777;DHT22;54079;44.540;18.784;2024-01-16T04:17:54;4.90;99.90
55777;DHT22;54079;44.540;18.784;2024-01-16T04:20:20;4.80;99.90
55777;DHT22;54079;44.540;18.784;2024-01-16T04:22:46;5.00;99.90
55777;DHT22;54079;44.540;18.784;2024-01-16T04:25:12;5.00;99.90
55777;DHT22;54079;44.540;18.784;2024-01-16T04:27:39;4.80;99.90
55777;DHT22;54079;44.540;18.784;2024-01-16T04:30:05;4.80;99.90
55777;DHT22;54079;44.540;18.784;2024-01-16T04:32:31;5.00;99.90
55777;DHT22;54079;44.540;18.784;2024-01-16T04:34:57;5.10;99.90
55777;DHT22;54079;44.540;18.784;2024-01-16T04:37:23;5.20;99.90
55777;DHT22;54079;44.540;18.784;2024-01-16T04:39:49;5.30;99.90
55777;DHT22;54079;44.540;18.784;2024-01-16T04:42:15;5.30;99.90
55777;DHT22;54079;44.540;18.784;2024-01-16T04:44:44;5.10;99.90
55777;DHT22;54079;44.540;18.784;2024-01-16T04:47:10;5.00;99.90
55777;DHT22;54079;44.540;18.784;2024-01-16T04:49:37;5.00;99.90
55777;DHT22;54079;44.540;18.784;2024-01-16T04:52:03;5.00;99.90
55777;DHT22;54079;44.540;18.784;2024-01-16T04:54:29;5.00;99.90
55777;DHT22;54079;44.540;18.784;2024-01-16T04:56:55;5.00;99.90
55777;DHT22;54079;44.540;18.784;2024-01-16T04:59:21;5.20;99.90
55777;DHT22;54079;44.540;18.784;2024-01-16T05:01:47;5.10;99.90
55777;DHT22;54079;44.540;18.784;2024-01-16T05:04:13;5.20;99.90
55777;DHT22;54079;44.540;18.784;2024-01-16T05:06:39;5.10;99.90
55777;DHT22;54079;44.540;18.784;2024-01-16T05:09:05;5.20;99.90
55777;DHT22;54079;44.540;18.784;2024-01-16T05:11:31;5.20;99.90
55777;DHT22;54079;44.540;18.784;2024-01-16T05:13:57;5.20;99.90
55777;DHT22;54079;44.540;18.784;2024-01-16T05:16:25;5.10;99.90
55777;DHT22;54079;44.540;18.784;2024-01-16T05:18:51;5.00;99.90
55777;DHT22;54079;44.540;18.784;2024-01-16T05:21:17;5.00;99.90
55777;DHT22;54079;44.540;18.784;2024-01-16T05:23:43;5.00;99.90
55777;DHT22;54079;44.540;18.784;2024-01-16T05:26:09;5.00;99.90
55777;DHT22;54079;44.540;18.784;2024-01-16T05:28:35;5.00;99.90
55777;DHT22;54079;44.540;18.784;2024-01-16T05:31:01;5.00;99.90
55777;DHT22;54079;44.540;18.784;2024-01-16T05:33:27;4.90;99.90
55777;DHT22;54079;44.540;18.784;2024-01-16T05:35:53;4.90;99.90
55777;DHT22;54079;44.540;18.784;2024-01-16T05:38:19;4.90;99.90
55777;DHT22;54079;44.540;18.784;2024-01-16T05:40:45;4.70;99.90
55777;DHT22;54079;44.540;18.784;2024-01-16T05:43:11;4.40;99.90
55777;DHT22;54079;44.540;18.784;2024-01-16T05:45:37;4.60;99.90
55777;DHT22;54079;44.540;18.784;2024-01-16T05:48:03;4.70;99.90
55777;DHT22;54079;44.540;18.784;2024-01-16T05:50:29;4.70;99.90
55777;DHT22;54079;44.540;18.784;2024-01-16T05:52:55;4.80;99.90
55777;DHT22;54079;44.540;18.784;2024-01-16T05:55:21;4.90;99.90
55777;DHT22;54079;44.540;18.784;2024-01-16T05:57:47;4.80;99.90
55777;DHT22;54079;44.540;18.784;2024-01-16T06:00:14;4.40;99.90
55777;DHT22;54079;44.540;18.784;2024-01-16T06:02:40;4.60;99.90
55777;DHT22;54079;44.540;18.784;2024-01-16T06:05:06;4.60;99.90
55777;DHT22;54079;44.540;18.784;2024-01-16T06:07:32;4.50;99.90
55777;DHT22;54079;44.540;18.784;2024-01-16T06:09:58;4.70;99.90
55777;DHT22;54079;44.540;18.784;2024-01-16T06:12:24;4.70;99.90
55777;DHT22;54079;44.540;18.784;2024-01-16T06:14:50;4.70;99.90
55777;DHT22;54079;44.540;18.784;2024-01-16T06:17:16;4.70;99.90
55777;DHT22;54079;44.540;18.784;2024-01-16T06:19:42;4.80;99.90
55777;DHT22;54079;44.540;18.784;2024-01-16T06:22:08;4.50;99.90
55777;DHT22;54079;44.540;18.784;2024-01-16T06:24:34;4.60;99.90
55777;DHT22;54079;44.540;18.784;2024-01-16T06:27:05;4.60;99.90
55777;DHT22;54079;44.540;18.784;2024-01-16T06:29:32;4.50;99.90
55777;DHT22;54079;44.540;18.784;2024-01-16T06:31:59;4.60;99.90
55777;DHT22;54079;44.540;18.784;2024-01-16T06:34:25;4.80;99.90
55777;DHT22;54079;44.540;18.784;2024-01-16T06:36:51;4.80;99.90
55777;DHT22;54079;44.540;18.784;2024-01-16T06:39:17;5.00;99.90
55777;DHT22;54079;44.540;18.784;2024-01-16T06:41:43;5.00;99.90
55777;DHT22;54079;44.540;18.784;2024-01-16T06:44:09;5.10;99.90
55777;DHT22;54079;44.540;18.784;2024-01-16T06:46:35;5.20;99.90
55777;DHT22;54079;44.540;18.784;2024-01-16T06:49:01;5.10;99.90
55777;DHT22;54079;44.540;18.784;2024-01-16T06:51:28;5.20;99.90
55777;DHT22;54079;44.540;18.784;2024-01-16T06:53:53;4.80;99.90
55777;DHT22;54079;44.540;18.784;2024-01-16T06:56:20;4.70;99.90
55777;DHT22;54079;44.540;18.784;2024-01-16T06:58:46;4.90;99.90
55777;DHT22;54079;44.540;18.784;2024-01-16T07:01:12;5.10;99.90
55777;DHT22;54079;44.540;18.784;2024-01-16T07:03:38;5.30;99.90
55777;DHT22;54079;44.540;18.784;2024-01-16T07:06:04;5.40;99.90
55777;DHT22;54079;44.540;18.784;2024-01-16T07:08:30;5.50;99.90
55777;DHT22;54079;44.540;18.784;2024-01-16T07:10:56;5.60;99.90
55777;DHT22;54079;44.540;18.784;2024-01-16T07:13:22;5.50;99.90
55777;DHT22;54079;44.540;18.784;2024-01-16T07:15:48;5.40;99.90
55777;DHT22;54079;44.540;18.784;2024-01-16T07:18:14;5.50;99.90
55777;DHT22;54079;44.540;18.784;2024-01-16T07:20:40;5.70;99.90
55777;DHT22;54079;44.540;18.784;2024-01-16T07:23:06;5.80;99.90
55777;DHT22;54079;44.540;18.784;2024-01-16T07:25:32;6.00;99.90
55777;DHT22;54079;44.540;18.784;2024-01-16T07:27:58;6.20;99.90
55777;DHT22;54079;44.540;18.784;2024-01-16T07:30:24;6.20;99.90
55777;DHT22;54079;44.540;18.784;2024-01-16T07:32:50;6.50;99.90
55777;DHT22;54079;44.540;18.784;2024-01-16T07:35:17;6.50;99.90
55777;DHT22;54079;44.540;18.784;2024-01-16T07:37:42;6.70;99.90
55777;DHT22;54079;44.540;18.784;2024-01-16T07:40:09;6.50;99.90
55777;DHT22;54079;44.540;18.784;2024-01-16T07:42:35;6.60;99.90
55777;DHT22;54079;44.540;18.784;2024-01-16T07:45:02;6.70;99.90
55777;DHT22;54079;44.540;18.784;2024-01-16T07:47:31;6.70;99.90
55777;DHT22;54079;44.540;18.784;2024-01-16T07:49:57;6.50;99.90
55777;DHT22;54079;44.540;18.784;2024-01-16T07:52:23;6.50;99.90
55777;DHT22;54079;44.540;18.784;2024-01-16T07:54:49;6.70;99.90
55777;DHT22;54079;44.540;18.784;2024-01-16T07:57:16;6.80;99.90
55777;DHT22;54079;44.540;18.784;2024-01-16T07:59:42;6.70;99.90
55777;DHT22;54079;44.540;18.784;2024-01-16T08:02:08;6.30;99.90
55777;DHT22;54079;44.540;18.784;2024-01-16T08:04:35;6.70;99.90
55777;DHT22;54079;44.540;18.784;2024-01-16T08:07:04;7.10;99.90
55777;DHT22;54079;44.540;18.784;2024-01-16T08:09:30;7.40;99.90
55777;DHT22;54079;44.540;18.784;2024-01-16T08:11:56;7.70;99.90
55777;DHT22;54079;44.540;18.784;2024-01-16T08:14:21;7.90;99.90
55777;DHT22;54079;44.540;18.784;2024-01-16T08:16:48;8.10;99.90
55777;DHT22;54079;44.540;18.784;2024-01-16T08:19:14;8.00;99.90
55777;DHT22;54079;44.540;18.784;2024-01-16T08:21:40;7.90;99.90
55777;DHT22;54079;44.540;18.784;2024-01-16T08:24:06;7.70;99.90
55777;DHT22;54079;44.540;18.784;2024-01-16T08:26:32;7.80;99.90
55777;DHT22;54079;44.540;18.784;2024-01-16T08:28:58;7.90;99.90
55777;DHT22;54079;44.540;18.784;2024-01-16T08:31:24;8.20;99.90
55777;DHT22;54079;44.540;18.784;2024-01-16T08:33:50;8.20;99.90
55777;DHT22;54079;44.540;18.784;2024-01-16T08:36:16;8.60;99.90
55777;DHT22;54079;44.540;18.784;2024-01-16T08:38:42;9.00;99.90
55777;DHT22;54079;44.540;18.784;2024-01-16T08:41:08;8.70;99.80
55777;DHT22;54079;44.540;18.784;2024-01-16T08:43:34;8.80;99.20
55777;DHT22;54079;44.540;18.784;2024-01-16T08:46:00;9.20;99.50
55777;DHT22;54079;44.540;18.784;2024-01-16T08:48:26;9.70;99.20
55777;DHT22;54079;44.540;18.784;2024-01-16T08:50:53;11.30;97.10
55777;DHT22;54079;44.540;18.784;2024-01-16T08:53:22;13.20;94.50
55777;DHT22;54079;44.540;18.784;2024-01-16T08:55:49;14.90;90.90
55777;DHT22;54079;44.540;18.784;2024-01-16T08:58:15;15.90;85.00
55777;DHT22;54079;44.540;18.784;2024-01-16T09:00:41;18.20;76.00
55777;DHT22;54079;44.540;18.784;2024-01-16T09:03:07;17.40;72.00
55777;DHT22;54079;44.540;18.784;2024-01-16T09:05:33;16.20;71.70
55777;DHT22;54079;44.540;18.784;2024-01-16T09:08:04;15.20;74.10
55777;DHT22;54079;44.540;18.784;2024-01-16T09:10:30;13.90;73.80
55777;DHT22;54079;44.540;18.784;2024-01-16T09:12:56;13.60;78.60
55777;DHT22;54079;44.540;18.784;2024-01-16T09:15:22;13.50;78.40
55777;DHT22;54079;44.540;18.784;2024-01-16T09:17:48;13.30;78.70
55777;DHT22;54079;44.540;18.784;2024-01-16T09:20:14;13.10;79.10
55777;DHT22;54079;44.540;18.784;2024-01-16T09:22:40;15.10;79.40
55777;DHT22;54079;44.540;18.784;2024-01-16T09:25:06;14.70;76.40
55777;DHT22;54079;44.540;18.784;2024-01-16T09:27:32;14.10;77.90
55777;DHT22;54079;44.540;18.784;2024-01-16T09:29:58;13.60;79.80
55777;DHT22;54079;44.540;18.784;2024-01-16T09:32:24;13.50;80.60
55777;DHT22;54079;44.540;18.784;2024-01-16T09:34:50;13.60;80.50
55777;DHT22;54079;44.540;18.784;2024-01-16T09:37:16;14.30;80.40
55777;DHT22;54079;44.540;18.784;2024-01-16T09:39:42;13.80;81.20
55777;DHT22;54079;44.540;18.784;2024-01-16T09:42:08;13.80;80.90
55777;DHT22;54079;44.540;18.784;2024-01-16T09:44:34;13.60;81.00
55777;DHT22;54079;44.540;18.784;2024-01-16T09:47:02;13.10;83.50
55777;DHT22;54079;44.540;18.784;2024-01-16T09:49:29;12.20;82.90
55777;DHT22;54079;44.540;18.784;2024-01-16T09:51:55;11.10;82.90
55777;DHT22;54079;44.540;18.784;2024-01-16T09:54:24;10.80;85.90
55777;DHT22;54079;44.540;18.784;2024-01-16T09:56:54;10.40;87.90
55777;DHT22;54079;44.540;18.784;2024-01-16T09:59:24;10.10;89.80
55777;DHT22;54079;44.540;18.784;2024-01-16T10:01:52;9.10;86.80
55777;DHT22;54079;44.540;18.784;2024-01-16T10:04:20;8.70;90.60
55777;DHT22;54079;44.540;18.784;2024-01-16T10:06:46;8.70;92.20
55777;DHT22;54079;44.540;18.784;2024-01-16T10:09:15;8.70;90.70
55777;DHT22;54079;44.540;18.784;2024-01-16T10:11:42;8.50;89.50
55777;DHT22;54079;44.540;18.784;2024-01-16T10:14:08;8.20;90.00
55777;DHT22;54079;44.540;18.784;2024-01-16T10:17:00;8.00;88.70
55777;DHT22;54079;44.540;18.784;2024-01-16T10:19:48;7.70;88.40
55777;DHT22;54079;44.540;18.784;2024-01-16T10:22:20;7.80;89.60
55777;DHT22;54079;44.540;18.784;2024-01-16T10:24:47;7.80;88.00
55777;DHT22;54079;44.540;18.784;2024-01-16T10:27:15;8.00;88.60
55777;DHT22;54079;44.540;18.784;2024-01-16T10:29:55;8.00;90.00
55777;DHT22;54079;44.540;18.784;2024-01-16T10:32:34;6.90;79.70
55777;DHT22;54079;44.540;18.784;2024-01-16T10:35:11;7.20;87.50
55777;DHT22;54079;44.540;18.784;2024-01-16T10:37:50;7.50;88.40
55777;DHT22;54079;44.540;18.784;2024-01-16T10:40:20;7.70;86.50
55777;DHT22;54079;44.540;18.784;2024-01-16T10:43:03;7.30;84.60
55777;DHT22;54079;44.540;18.784;2024-01-16T10:45:29;7.20;84.60
55777;DHT22;54079;44.540;18.784;2024-01-16T10:48:08;7.40;86.70
55777;DHT22;54079;44.540;18.784;2024-01-16T10:50:36;7.30;83.80
55777;DHT22;54079;44.540;18.784;2024-01-16T10:53:06;7.60;84.50
55777;DHT22;54079;44.540;18.784;2024-01-16T10:55:53;7.50;81.50
55777;DHT22;54079;44.540;18.784;2024-01-16T10:58:23;7.40;82.00
55777;DHT22;54079;44.540;18.784;2024-01-16T11:00:53;7.60;83.50
55777;DHT22;54079;44.540;18.784;2024-01-16T11:03:25;7.20;79.30
55777;DHT22;54079;44.540;18.784;2024-01-16T11:05:57;7.10;81.60
55777;DHT22;54079;44.540;18.784;2024-01-16T11:08:25;7.40;84.30
55777;DHT22;54079;44.540;18.784;2024-01-16T11:10:58;7.70;81.60
55777;DHT22;54079;44.540;18.784;2024-01-16T11:13:25;7.80;80.40
55777;DHT22;54079;44.540;18.784;2024-01-16T11:15:51;7.90;82.80
55777;DHT22;54079;44.540;18.784;2024-01-16T11:18:18;7.90;79.90
55777;DHT22;54079;44.540;18.784;2024-01-16T11:20:45;7.90;79.60
55777;DHT22;54079;44.540;18.784;2024-01-16T11:23:12;8.10;80.50
55777;DHT22;54079;44.540;18.784;2024-01-16T11:25:39;7.90;77.20
55777;DHT22;54079;44.540;18.784;2024-01-16T11:28:09;8.10;79.40
55777;DHT22;54079;44.540;18.784;2024-01-16T11:30:39;7.80;74.90
55777;DHT22;54079;44.540;18.784;2024-01-16T11:33:06;7.90;75.70
55777;DHT22;54079;44.540;18.784;2024-01-16T11:35:34;8.00;77.70
55777;DHT22;54079;44.540;18.784;2024-01-16T11:38:15;7.80;77.60
55777;DHT22;54079;44.540;18.784;2024-01-16T11:40:47;7.80;75.90
55777;DHT22;54079;44.540;18.784;2024-01-16T11:45:58;8.00;79.40
55777;DHT22;54079;44.540;18.784;2024-01-16T11:48:25;8.20;81.20
55777;DHT22;54079;44.540;18.784;2024-01-16T11:50:52;8.30;80.00
55777;DHT22;54079;44.540;18.784;2024-01-16T11:59:08;8.40;77.50
55777;DHT22;54079;44.540;18.784;2024-01-16T12:01:37;8.20;77.50
55777;DHT22;54079;44.540;18.784;2024-01-16T12:04:07;8.30;75.60
55777;DHT22;54079;44.540;18.784;2024-01-16T12:06:36;8.10;72.50
55777;DHT22;54079;44.540;18.784;2024-01-16T12:09:21;8.10;75.10
55777;DHT22;54079;44.540;18.784;2024-01-16T12:12:14;8.30;77.90
55777;DHT22;54079;44.540;18.784;2024-01-16T12:14:43;8.30;75.80
55777;DHT22;54079;44.540;18.784;2024-01-16T12:17:16;8.30;75.30
55777;DHT22;54079;44.540;18.784;2024-01-16T12:19:44;8.10;71.30
55777;DHT22;54079;44.540;18.784;2024-01-16T12:22:10;8.00;76.30
55777;DHT22;54079;44.540;18.784;2024-01-16T12:24:39;7.80;77.50
55777;DHT22;54079;44.540;18.784;2024-01-16T12:27:05;8.00;73.40
55777;DHT22;54079;44.540;18.784;2024-01-16T12:29:31;8.10;74.90
55777;DHT22;54079;44.540;18.784;2024-01-16T12:32:11;8.30;76.00
55777;DHT22;54079;44.540;18.784;2024-01-16T12:34:45;8.30;76.00
55777;DHT22;54079;44.540;18.784;2024-01-16T12:37:12;8.20;71.20
55777;DHT22;54079;44.540;18.784;2024-01-16T12:39:38;7.90;71.50
55777;DHT22;54079;44.540;18.784;2024-01-16T12:42:05;8.00;75.90
55777;DHT22;54079;44.540;18.784;2024-01-16T12:44:31;7.80;70.20
55777;DHT22;54079;44.540;18.784;2024-01-16T12:46:57;7.60;69.10
55777;DHT22;54079;44.540;18.784;2024-01-16T12:49:24;7.90;75.10
55777;DHT22;54079;44.540;18.784;2024-01-16T12:51:50;8.10;73.70
55777;DHT22;54079;44.540;18.784;2024-01-16T12:54:18;8.20;74.70
55777;DHT22;54079;44.540;18.784;2024-01-16T12:56:47;8.20;75.50
55777;DHT22;54079;44.540;18.784;2024-01-16T12:59:14;8.40;74.80
55777;DHT22;54079;44.540;18.784;2024-01-16T13:01:44;8.20;72.40
55777;DHT22;54079;44.540;18.784;2024-01-16T13:04:12;8.00;69.90
55777;DHT22;54079;44.540;18.784;2024-01-16T13:06:40;7.50;68.90
55777;DHT22;54079;44.540;18.784;2024-01-16T13:09:10;7.40;70.60
55777;DHT22;54079;44.540;18.784;2024-01-16T13:14:16;8.00;72.60
55777;DHT22;54079;44.540;18.784;2024-01-16T13:16:42;8.00;74.40
55777;DHT22;54079;44.540;18.784;2024-01-16T13:19:08;8.20;72.10
55777;DHT22;54079;44.540;18.784;2024-01-16T13:21:37;8.40;71.70
55777;DHT22;54079;44.540;18.784;2024-01-16T13:24:06;8.20;68.80
55777;DHT22;54079;44.540;18.784;2024-01-16T13:26:32;8.30;72.20
55777;DHT22;54079;44.540;18.784;2024-01-16T13:28:59;8.20;69.70
55777;DHT22;54079;44.540;18.784;2024-01-16T13:31:25;8.10;69.70
55777;DHT22;54079;44.540;18.784;2024-01-16T13:33:51;7.90;68.80
55777;DHT22;54079;44.540;18.784;2024-01-16T13:36:17;8.10;71.60
55777;DHT22;54079;44.540;18.784;2024-01-16T13:38:43;8.10;70.20
55777;DHT22;54079;44.540;18.784;2024-01-16T13:41:10;8.40;74.70
55777;DHT22;54079;44.540;18.784;2024-01-16T13:43:36;8.30;72.30
55777;DHT22;54079;44.540;18.784;2024-01-16T13:46:03;8.20;70.50
55777;DHT22;54079;44.540;18.784;2024-01-16T13:48:29;8.30;73.00
55777;DHT22;54079;44.540;18.784;2024-01-16T13:50:55;8.10;69.40
55777;DHT22;54079;44.540;18.784;2024-01-16T13:53:21;8.30;72.60
55777;DHT22;54079;44.540;18.784;2024-01-16T13:55:48;8.30;70.20
55777;DHT22;54079;44.540;18.784;2024-01-16T13:58:14;8.00;69.80
55777;DHT22;54079;44.540;18.784;2024-01-16T14:00:40;7.60;69.10
55777;DHT22;54079;44.540;18.784;2024-01-16T14:03:06;7.60;67.20
55777;DHT22;54079;44.540;18.784;2024-01-16T14:05:32;7.80;70.40
55777;DHT22;54079;44.540;18.784;2024-01-16T14:07:58;7.90;69.90
55777;DHT22;54079;44.540;18.784;2024-01-16T14:10:24;7.60;71.70
55777;DHT22;54079;44.540;18.784;2024-01-16T14:12:51;7.70;74.30
55777;DHT22;54079;44.540;18.784;2024-01-16T14:15:19;7.60;71.80
55777;DHT22;54079;44.540;18.784;2024-01-16T14:17:56;7.70;74.30
55777;DHT22;54079;44.540;18.784;2024-01-16T14:20:24;7.50;74.60
55777;DHT22;54079;44.540;18.784;2024-01-16T14:22:52;7.50;74.10
55777;DHT22;54079;44.540;18.784;2024-01-16T14:25:19;7.70;76.10
55777;DHT22;54079;44.540;18.784;2024-01-16T14:30:24;7.20;76.10
55777;DHT22;54079;44.540;18.784;2024-01-16T14:32:51;7.00;75.90
55777;DHT22;54079;44.540;18.784;2024-01-16T14:35:18;7.20;77.10
55777;DHT22;54079;44.540;18.784;2024-01-16T14:37:45;7.10;76.90
55777;DHT22;54079;44.540;18.784;2024-01-16T14:40:11;7.30;79.50
55777;DHT22;54079;44.540;18.784;2024-01-16T14:42:52;7.30;77.60
55777;DHT22;54079;44.540;18.784;2024-01-16T14:45:23;7.30;77.30
55777;DHT22;54079;44.540;18.784;2024-01-16T14:47:51;7.30;79.90
55777;DHT22;54079;44.540;18.784;2024-01-16T14:50:19;7.20;77.50
55777;DHT22;54079;44.540;18.784;2024-01-16T14:52:48;7.20;78.70
55777;DHT22;54079;44.540;18.784;2024-01-16T14:55:15;7.30;80.10
55777;DHT22;54079;44.540;18.784;2024-01-16T14:57:41;7.20;78.40
55777;DHT22;54079;44.540;18.784;2024-01-16T15:00:13;7.20;78.60
55777;DHT22;54079;44.540;18.784;2024-01-16T15:02:49;7.20;79.80
55777;DHT22;54079;44.540;18.784;2024-01-16T15:05:16;6.90;79.90
55777;DHT22;54079;44.540;18.784;2024-01-16T15:07:42;6.70;79.90
55777;DHT22;54079;44.540;18.784;2024-01-16T15:10:09;6.70;80.30
55777;DHT22;54079;44.540;18.784;2024-01-16T15:12:43;6.90;81.70
55777;DHT22;54079;44.540;18.784;2024-01-16T15:15:11;6.90;82.80
55777;DHT22;54079;44.540;18.784;2024-01-16T15:17:41;6.90;84.90
55777;DHT22;54079;44.540;18.784;2024-01-16T15:20:08;6.90;82.00
55777;DHT22;54079;44.540;18.784;2024-01-16T15:22:37;6.90;83.50
55777;DHT22;54079;44.540;18.784;2024-01-16T15:25:04;6.70;83.60
55777;DHT22;54079;44.540;18.784;2024-01-16T15:27:30;6.80;83.60
55777;DHT22;54079;44.540;18.784;2024-01-16T15:29:57;6.70;85.30
55777;DHT22;54079;44.540;18.784;2024-01-16T15:32:24;6.50;82.80
55777;DHT22;54079;44.540;18.784;2024-01-16T15:34:51;6.50;86.00
55777;DHT22;54079;44.540;18.784;2024-01-16T15:37:17;6.40;86.80
55777;DHT22;54079;44.540;18.784;2024-01-16T15:39:43;6.30;86.50
55777;DHT22;54079;44.540;18.784;2024-01-16T15:42:11;6.30;84.30
55777;DHT22;54079;44.540;18.784;2024-01-16T15:44:37;6.20;86.00